createdAt,value
2022-08-30T00:00:08.453Z,1021.739868
2022-08-30T00:01:14.294Z,1021.778748
2022-08-30T00:03:08.577Z,1021.748291
2022-08-30T00:04:12.011Z,1021.712708
2022-08-30T00:05:08.402Z,1021.727661
2022-08-30T00:06:08.283Z,1021.692688
2022-08-30T00:08:07.198Z,1021.809143
2022-08-30T00:09:02.280Z,1021.790039
2022-08-30T00:10:07.231Z,1021.746948
2022-08-30T00:11:05.382Z,1021.836304
2022-08-30T00:12:07.343Z,1021.774109
2022-08-30T00:13:02.725Z,1021.820313
2022-08-30T00:14:05.305Z,1021.753418
2022-08-30T00:14:58.635Z,1021.756409
2022-08-30T00:15:57.586Z,1021.780579
2022-08-30T00:16:52.421Z,1021.742126
2022-08-30T00:17:51.731Z,1021.812439
2022-08-30T00:18:48.366Z,1021.799561
2022-08-30T00:19:52.059Z,1021.729309
2022-08-30T00:20:47.285Z,1021.78363
2022-08-30T00:21:50.191Z,1021.729309
2022-08-30T00:22:43.539Z,1021.753418
2022-08-30T00:23:45.794Z,1021.702209
2022-08-30T00:24:42.490Z,1021.794922
2022-08-30T00:25:44.398Z,1021.732849
2022-08-30T00:26:40.357Z,1021.779053
2022-08-30T00:28:33.799Z,1021.692871
2022-08-30T00:29:33.656Z,1021.74707
2022-08-30T00:30:28.053Z,1021.766296
2022-08-30T00:31:31.011Z,1021.777588
2022-08-30T00:33:21.244Z,1021.671997
2022-08-30T00:34:07.397Z,1021.646118
2022-08-30T00:35:06.563Z,1021.7099
2022-08-30T00:36:09.546Z,1021.650818
2022-08-30T00:37:10.451Z,1021.670166
2022-08-30T00:38:09.447Z,1021.687866
2022-08-30T00:39:13.676Z,1021.647827
2022-08-30T00:40:09.125Z,1021.686279
2022-08-30T00:41:09.709Z,1021.686279
2022-08-30T00:42:12.762Z,1021.71344
2022-08-30T00:43:13.939Z,1021.673767
2022-08-30T00:44:11.008Z,1021.66571
2022-08-30T00:45:15.495Z,1021.63385
2022-08-30T00:46:20.309Z,1021.609741
2022-08-30T00:47:15.661Z,1021.571716
2022-08-30T00:48:18.846Z,1021.602234
2022-08-30T00:49:18.744Z,1021.640503
2022-08-30T00:50:20.680Z,1021.624573
2022-08-30T00:51:21.621Z,1021.643311
2022-08-30T00:52:34.791Z,1021.624573
2022-08-30T00:53:31.105Z,1021.697632
2022-08-30T00:54:34.140Z,1021.600098
2022-08-30T00:55:39.145Z,1021.712585
2022-08-30T00:56:36.254Z,1021.669434
2022-08-30T00:58:45.622Z,1021.664612
2022-08-30T00:59:47.916Z,1021.703064
2022-08-30T01:00:49.812Z,1021.744141
2022-08-30T01:01:50.557Z,1021.720581
2022-08-30T01:03:46.949Z,1021.758972
2022-08-30T01:04:50.177Z,1021.727173
2022-08-30T01:05:49.984Z,1021.703308
2022-08-30T01:06:50.812Z,1021.698669
2022-08-30T01:08:54.587Z,1021.725769
2022-08-30T01:09:53.492Z,1021.706482
2022-08-30T01:10:56.955Z,1021.767212
2022-08-30T01:11:57.194Z,1021.786438
2022-08-30T01:13:01.976Z,1021.783142
2022-08-30T01:15:00.282Z,1021.847168
2022-08-30T01:15:18.074Z,1021.882202
2022-08-30T01:16:08.572Z,1021.843689
2022-08-30T01:17:13.310Z,1021.877014
2022-08-30T01:18:09.591Z,1021.803223
2022-08-30T01:19:10.973Z,1021.779663
2022-08-30T01:20:06.734Z,1021.774841
2022-08-30T01:21:08.594Z,1021.751221
2022-08-30T01:23:06.113Z,1021.808472
2022-08-30T01:24:02.592Z,1021.757629
2022-08-30T01:25:09.621Z,1021.728821
2022-08-30T01:26:11.174Z,1021.748108
2022-08-30T01:28:15.035Z,1021.754456
2022-08-30T01:29:11.682Z,1021.67627
2022-08-30T01:30:15.954Z,1021.679626
2022-08-30T01:31:11.452Z,1021.78064
2022-08-30T01:32:10.926Z,1021.730591
2022-08-30T01:33:09.215Z,1021.730591
2022-08-30T01:34:09.820Z,1021.7146
2022-08-30T01:35:06.165Z,1021.760986
2022-08-30T01:36:14.124Z,1021.620544
2022-08-30T01:38:15.748Z,1021.694519
2022-08-30T01:39:13.402Z,1021.740417
2022-08-30T01:40:08.681Z,1021.767517
2022-08-30T01:41:11.949Z,1021.751587
2022-08-30T01:42:08.641Z,1021.724426
2022-08-30T01:43:13.401Z,1021.778748
2022-08-30T01:44:08.886Z,1021.708435
2022-08-30T01:45:11.115Z,1021.778748
2022-08-30T01:46:10.201Z,1021.744019
2022-08-30T01:48:09.934Z,1021.719727
2022-08-30T01:49:13.133Z,1021.750427
2022-08-30T01:50:05.955Z,1021.777588
2022-08-30T01:51:07.546Z,1021.785217
2022-08-30T01:52:04.034Z,1021.742065
2022-08-30T01:53:14.320Z,1021.730896
2022-08-30T01:54:11.596Z,1021.834656
2022-08-30T01:55:11.693Z,1021.780396
2022-08-30T01:56:13.045Z,1021.737244
2022-08-30T01:58:13.285Z,1021.892395
2022-08-30T01:59:47.021Z,1021.88208
2022-08-30T02:00:47.587Z,1021.90686
2022-08-30T02:01:51.553Z,1021.842041
2022-08-30T02:03:43.996Z,1021.807556
2022-08-30T02:04:19.605Z,1021.785095
2022-08-30T02:05:26.494Z,1021.780334
2022-08-30T02:06:14.993Z,1021.778809
2022-08-30T02:08:08.269Z,1021.86615
2022-08-30T02:09:07.110Z,1021.80127
2022-08-30T02:10:09.681Z,1021.847717
2022-08-30T02:11:09.518Z,1021.868896
2022-08-30T02:12:03.810Z,1021.816345
2022-08-30T02:13:06.487Z,1021.795654
2022-08-30T02:14:01.370Z,1021.757629
2022-08-30T02:15:02.476Z,1021.807251
2022-08-30T02:15:58.142Z,1021.864563
2022-08-30T02:16:56.644Z,1021.870972
2022-08-30T02:17:51.100Z,1021.843811
2022-08-30T02:18:54.392Z,1021.78479
2022-08-30T02:19:59.896Z,1021.818909
2022-08-30T02:21:00.139Z,1021.837708
2022-08-30T02:22:02.732Z,1021.802917
2022-08-30T02:23:01.410Z,1021.751587
2022-08-30T02:24:02.409Z,1021.812317
2022-08-30T02:24:54.258Z,1021.793579
2022-08-30T02:25:57.009Z,1021.818665
2022-08-30T02:26:49.737Z,1021.854248
2022-08-30T02:27:50.891Z,1021.788818
2022-08-30T02:28:50.029Z,1021.769165
2022-08-30T02:29:46.751Z,1021.772766
2022-08-30T02:30:41.076Z,1021.761658
2022-08-30T02:31:44.497Z,1021.861755
2022-08-30T02:32:38.769Z,1021.769165
2022-08-30T02:33:37.437Z,1021.811157
2022-08-30T02:34:42.261Z,1021.802734
2022-08-30T02:35:44.801Z,1021.821228
2022-08-30T02:36:36.789Z,1021.789307
2022-08-30T02:37:43.047Z,1021.851196
2022-08-30T02:38:37.672Z,1021.742615
2022-08-30T02:39:36.146Z,1021.776123
2022-08-30T02:40:32.867Z,1021.733093
2022-08-30T02:41:33.392Z,1021.798584
2022-08-30T02:43:29.058Z,1021.698425
2022-08-30T02:44:23.375Z,1021.744263
2022-08-30T02:45:23.308Z,1021.720825
2022-08-30T02:46:17.817Z,1021.720825
2022-08-30T02:48:10.983Z,1021.717224
2022-08-30T02:49:33.680Z,1021.717224
2022-08-30T02:49:35.704Z,1021.717224
2022-08-30T02:50:10.550Z,1021.667664
2022-08-30T02:51:04.372Z,1021.677185
2022-08-30T02:52:04.422Z,1021.611694
2022-08-30T02:52:59.744Z,1021.611694
2022-08-30T02:54:01.990Z,1021.707947
2022-08-30T02:54:53.426Z,1021.618164
2022-08-30T02:55:55.506Z,1021.575073
2022-08-30T02:56:50.558Z,1021.688416
2022-08-30T02:58:35.754Z,1021.685608
2022-08-30T02:58:56.858Z,1021.70575
2022-08-30T02:59:55.083Z,1021.686096
2022-08-30T03:00:55.585Z,1021.636597
2022-08-30T03:01:52.145Z,1021.658936
2022-08-30T03:02:55.566Z,1021.681274
2022-08-30T03:03:53.794Z,1021.718506
2022-08-30T03:04:54.090Z,1021.635559
2022-08-30T03:05:56.041Z,1021.615417
2022-08-30T03:06:51.859Z,1021.640503
2022-08-30T03:07:54.678Z,1021.605896
2022-08-30T03:08:53.714Z,1021.619812
2022-08-30T03:09:58.234Z,1021.669434
2022-08-30T03:10:53.109Z,1021.688904
2022-08-30T03:11:58.242Z,1021.641113
2022-08-30T03:12:55.984Z,1021.586792
2022-08-30T03:13:59.060Z,1021.542419
2022-08-30T03:14:56.269Z,1021.58844
2022-08-30T03:16:02.218Z,1021.52655
2022-08-30T03:16:56.715Z,1021.634949
2022-08-30T03:17:55.869Z,1021.569458
2022-08-30T03:18:50.681Z,1021.583618
2022-08-30T03:19:51.969Z,1021.630127
2022-08-30T03:20:54.205Z,1021.532837
2022-08-30T03:20:54.575Z,1021.532837
2022-08-30T03:21:53.557Z,1021.521729
2022-08-30T03:23:52.638Z,1021.572632
2022-08-30T03:24:47.416Z,1021.537598
2022-08-30T03:25:49.991Z,1021.55658
2022-08-30T03:26:46.273Z,1021.521729
2022-08-30T03:27:54.877Z,1021.510498
2022-08-30T03:28:51.397Z,1021.494568
2022-08-30T03:29:50.388Z,1021.551819
2022-08-30T03:30:48.682Z,1021.558167
2022-08-30T03:31:52.691Z,1021.588745
2022-08-30T03:31:53.629Z,1021.588745
2022-08-30T03:33:54.797Z,1021.582336
2022-08-30T03:34:59.432Z,1021.612427
2022-08-30T03:35:59.475Z,1021.615845
2022-08-30T03:36:55.970Z,1021.583984
2022-08-30T03:37:58.145Z,1021.673096
2022-08-30T03:38:50.647Z,1021.660522
2022-08-30T03:39:55.812Z,1021.625916
2022-08-30T03:40:56.444Z,1021.617493
2022-08-30T03:41:59.446Z,1021.691162
2022-08-30T03:42:52.105Z,1021.714722
2022-08-30T03:43:59.867Z,1021.625916
2022-08-30T03:44:56.833Z,1021.625916
2022-08-30T03:45:56.755Z,1021.630615
2022-08-30T03:46:53.211Z,1021.618896
2022-08-30T03:47:55.008Z,1021.657654
2022-08-30T03:48:55.920Z,1021.625916
2022-08-30T03:49:51.338Z,1021.636963
2022-08-30T03:51:37.449Z,1021.599854
2022-08-30T03:52:21.779Z,1021.566345
2022-08-30T03:53:21.059Z,1021.574219
2022-08-30T03:54:20.449Z,1021.647705
2022-08-30T03:55:24.840Z,1021.634888
2022-08-30T03:56:25.858Z,1021.641785
2022-08-30T03:58:25.311Z,1021.687561
2022-08-30T03:59:26.632Z,1021.6828
2022-08-30T04:00:29.427Z,1021.677979
2022-08-30T04:01:28.543Z,1021.69281
2022-08-30T04:02:31.019Z,1021.630127
2022-08-30T04:03:39.965Z,1021.672119
2022-08-30T04:04:38.141Z,1021.663757
2022-08-30T04:05:37.864Z,1021.659424
2022-08-30T04:06:39.299Z,1021.662598
2022-08-30T04:08:45.361Z,1021.662598
2022-08-30T04:09:47.896Z,1021.673645
2022-08-30T04:10:48.284Z,1021.724915
2022-08-30T04:11:44.681Z,1021.643616
2022-08-30T04:12:49.821Z,1021.694336
2022-08-30T04:13:44.693Z,1021.710327
2022-08-30T04:14:42.707Z,1021.717834
2022-08-30T04:15:46.809Z,1021.710327
2022-08-30T04:16:44.343Z,1021.702026
2022-08-30T04:17:47.810Z,1021.713623
2022-08-30T04:18:46.623Z,1021.721497
2022-08-30T04:19:54.613Z,1021.705505
2022-08-30T04:20:57.673Z,1021.732666
2022-08-30T04:21:53.202Z,1021.705505
2022-08-30T04:22:52.097Z,1021.717834
2022-08-30T04:23:57.186Z,1021.697754
2022-08-30T04:24:53.423Z,1021.734253
2022-08-30T04:25:59.424Z,1021.740295
2022-08-30T04:26:58.559Z,1021.743591
2022-08-30T04:28:35.170Z,1021.721252
2022-08-30T04:29:14.934Z,1021.715271
2022-08-30T04:30:14.150Z,1021.692932
2022-08-30T04:31:15.818Z,1021.734253
2022-08-30T04:32:19.315Z,1021.748413
2022-08-30T04:33:23.184Z,1021.759644
2022-08-30T04:34:22.439Z,1021.727722
2022-08-30T04:35:21.612Z,1021.703674
2022-08-30T04:36:24.335Z,1021.753479
2022-08-30T04:37:20.405Z,1021.769531
2022-08-30T04:38:18.916Z,1021.783386
2022-08-30T04:39:13.869Z,1021.697266
2022-08-30T04:40:14.042Z,1021.805725
2022-08-30T04:41:16.571Z,1021.724426
2022-08-30T04:42:15.867Z,1021.728149
2022-08-30T04:43:14.940Z,1021.755188
2022-08-30T04:44:19.645Z,1021.788513
2022-08-30T04:45:12.560Z,1021.734314
2022-08-30T04:46:07.392Z,1021.746826
2022-08-30T04:47:08.986Z,1021.773865
2022-08-30T04:48:05.272Z,1021.801025
2022-08-30T04:49:07.523Z,1021.815674
2022-08-30T04:50:00.428Z,1021.780151
2022-08-30T04:50:57.584Z,1021.86145
2022-08-30T04:52:00.984Z,1021.79126
2022-08-30T04:54:02.640Z,1021.813599
2022-08-30T04:55:06.784Z,1021.797729
2022-08-30T04:56:02.498Z,1021.901794
2022-08-30T04:57:04.242Z,1021.855469
2022-08-30T04:59:00.351Z,1021.824768
2022-08-30T04:59:56.931Z,1021.866638
2022-08-30T05:00:54.542Z,1021.896973
2022-08-30T05:01:59.201Z,1021.860291
2022-08-30T05:02:51.700Z,1021.981323
2022-08-30T05:03:57.294Z,1021.91449
2022-08-30T05:04:51.666Z,1021.86322
2022-08-30T05:05:55.146Z,1021.893738
2022-08-30T05:06:56.334Z,1021.858582
2022-08-30T05:07:52.561Z,1021.882507
2022-08-30T05:08:54.461Z,1021.88562
2022-08-30T05:09:49.030Z,1021.920776
2022-08-30T05:11:26.105Z,1021.861755
2022-08-30T05:12:29.273Z,1022.016479
2022-08-30T05:13:25.971Z,1021.967163
2022-08-30T05:13:35.286Z,1021.967163
2022-08-30T05:13:35.627Z,1021.967163
2022-08-30T05:14:26.312Z,1022.00061
2022-08-30T05:15:22.873Z,1021.983032
2022-08-30T05:16:26.577Z,1022.055969
2022-08-30T05:17:20.050Z,1022.043579
2022-08-30T05:18:19.954Z,1022.022827
2022-08-30T05:20:42.405Z,1022.055969
2022-08-30T05:21:07.993Z,1022.085022
2022-08-30T05:22:06.981Z,1022.108582
2022-08-30T05:23:07.742Z,1022.089844
2022-08-30T05:24:05.492Z,1022.080383
2022-08-30T05:25:15.513Z,1022.138733
2022-08-30T05:26:16.256Z,1022.051392
2022-08-30T05:27:16.281Z,1022.11676
2022-08-30T05:28:20.947Z,1022.153442
2022-08-30T05:29:17.164Z,1022.207642
2022-08-30T05:29:28.380Z,1022.172729
2022-08-30T05:30:29.843Z,1022.191711
2022-08-30T05:31:26.274Z,1022.191711
2022-08-30T05:32:29.926Z,1022.182007
2022-08-30T05:33:25.244Z,1022.234619
2022-08-30T05:34:23.585Z,1022.221741
2022-08-30T05:35:25.863Z,1022.263184
2022-08-30T05:36:20.818Z,1022.296509
2022-08-30T05:37:21.703Z,1022.207825
2022-08-30T05:38:18.260Z,1022.248657
2022-08-30T05:39:21.038Z,1022.184814
2022-08-30T05:40:23.380Z,1022.226624
2022-08-30T05:41:16.822Z,1022.180115
2022-08-30T05:42:22.056Z,1022.183594
2022-08-30T05:43:18.669Z,1022.237732
2022-08-30T05:44:25.765Z,1022.291931
2022-08-30T05:45:19.065Z,1022.229858
2022-08-30T05:46:17.075Z,1022.299438
2022-08-30T05:47:20.025Z,1022.326477
2022-08-30T05:48:16.594Z,1022.291931
2022-08-30T05:49:21.435Z,1022.333435
2022-08-30T05:50:19.216Z,1022.277405
2022-08-30T05:51:18.397Z,1022.288391
2022-08-30T05:52:18.628Z,1022.288391
2022-08-30T05:53:15.413Z,1022.296509
2022-08-30T05:54:18.071Z,1022.272461
2022-08-30T05:55:18.260Z,1022.229614
2022-08-30T05:57:06.074Z,1022.3125
2022-08-30T05:58:44.049Z,1022.350952
2022-08-30T05:59:45.232Z,1022.188538
2022-08-30T06:00:41.776Z,1022.304321
2022-08-30T06:01:44.582Z,1022.31543
2022-08-30T06:02:41.352Z,1022.264893
2022-08-30T06:03:42.777Z,1022.303101
2022-08-30T06:04:40.118Z,1022.268005
2022-08-30T06:05:41.937Z,1022.258362
2022-08-30T06:06:42.003Z,1022.304504
2022-08-30T06:07:42.068Z,1022.266296
2022-08-30T06:08:42.072Z,1022.266296
2022-08-30T06:09:41.257Z,1022.247314
2022-08-30T06:12:11.364Z,1022.314087
2022-08-30T06:12:51.233Z,1022.255493
2022-08-30T06:13:49.274Z,1022.285583
2022-08-30T06:14:45.704Z,1022.288879
2022-08-30T06:15:45.653Z,1022.311096
2022-08-30T06:16:40.181Z,1022.322266
2022-08-30T06:17:47.086Z,1022.279114
2022-08-30T06:18:35.203Z,1022.290283
2022-08-30T06:19:34.588Z,1022.330017
2022-08-30T06:20:28.596Z,1022.322266
2022-08-30T06:21:29.561Z,1022.236145
2022-08-30T06:22:24.806Z,1022.269531
2022-08-30T06:23:26.090Z,1022.182007
2022-08-30T06:24:17.815Z,1022.306152
2022-08-30T06:25:16.946Z,1022.328552
2022-08-30T06:26:11.605Z,1022.259949
2022-08-30T06:27:11.322Z,1022.301453
2022-08-30T06:28:05.717Z,1022.322266
2022-08-30T06:29:08.324Z,1022.298096
2022-08-30T06:30:02.737Z,1022.306152
2022-08-30T06:31:01.000Z,1022.30304
2022-08-30T06:31:57.628Z,1022.322266
2022-08-30T06:33:54.335Z,1022.243958
2022-08-30T06:34:55.708Z,1022.275879
2022-08-30T06:35:58.832Z,1022.373047
2022-08-30T06:35:59.205Z,1022.373047
2022-08-30T06:36:51.455Z,1022.3479
2022-08-30T06:37:46.781Z,1022.338196
2022-08-30T06:38:44.667Z,1022.269958
2022-08-30T06:39:39.880Z,1022.269958
2022-08-30T06:40:41.576Z,1022.331848
2022-08-30T06:41:33.613Z,1022.296997
2022-08-30T06:42:31.156Z,1022.293762
2022-08-30T06:43:30.077Z,1022.258179
2022-08-30T06:44:25.323Z,1022.24707
2022-08-30T06:45:23.428Z,1022.274109
2022-08-30T06:46:18.014Z,1022.251892
2022-08-30T06:47:17.036Z,1022.238098
2022-08-30T06:48:11.615Z,1022.331726
2022-08-30T06:49:11.147Z,1022.269958
2022-08-30T06:50:06.319Z,1022.286011
2022-08-30T06:51:08.725Z,1022.287048
2022-08-30T06:52:52.768Z,1022.260376
2022-08-30T06:53:33.508Z,1022.244019
2022-08-30T06:54:33.129Z,1022.305176
2022-08-30T06:55:28.471Z,1022.266846
2022-08-30T06:56:25.405Z,1022.301514
2022-08-30T06:58:19.359Z,1022.296753
2022-08-30T06:59:21.726Z,1022.334961
2022-08-30T07:00:14.398Z,1022.237793
2022-08-30T07:01:13.679Z,1022.253662
2022-08-30T07:02:11.222Z,1022.355652
2022-08-30T07:03:10.568Z,1022.228516
2022-08-30T07:04:06.023Z,1022.309875
2022-08-30T07:05:06.311Z,1022.263245
2022-08-30T07:06:01.524Z,1022.299866
2022-08-30T07:07:00.784Z,1022.26532
2022-08-30T07:07:58.152Z,1022.258362
2022-08-30T07:08:56.128Z,1022.28717
2022-08-30T07:09:52.762Z,1022.250427
2022-08-30T07:10:48.240Z,1022.287109
2022-08-30T07:11:46.819Z,1022.2771
2022-08-30T07:12:47.749Z,1022.247131
2022-08-30T07:13:40.737Z,1022.2547
2022-08-30T07:14:42.732Z,1022.295044
2022-08-30T07:15:38.471Z,1022.266235
2022-08-30T07:16:35.480Z,1022.248169
2022-08-30T07:17:34.516Z,1022.265869
2022-08-30T07:18:33.440Z,1022.212769
2022-08-30T07:19:26.798Z,1022.265381
2022-08-30T07:20:39.917Z,1022.198181
2022-08-30T07:20:40.220Z,1022.198181
2022-08-30T07:21:25.674Z,1022.177185
2022-08-30T07:22:21.351Z,1022.162415
2022-08-30T07:24:18.232Z,1022.197205
2022-08-30T07:25:18.165Z,1022.264709
2022-08-30T07:26:14.411Z,1022.187683
2022-08-30T07:27:12.274Z,1022.235596
2022-08-30T07:28:12.625Z,1022.221252
2022-08-30T07:29:08.291Z,1022.211426
2022-08-30T07:30:11.235Z,1022.238586
2022-08-30T07:31:04.561Z,1022.213135
2022-08-30T07:34:54.576Z,1022.135376
2022-08-30T07:35:33.789Z,1022.150635
2022-08-30T07:36:30.874Z,1022.131287
2022-08-30T07:38:24.233Z,1022.147583
2022-08-30T07:39:23.009Z,1022.092285
2022-08-30T07:40:18.208Z,1022.184998
2022-08-30T07:41:15.929Z,1022.117676
2022-08-30T07:42:10.227Z,1022.194458
2022-08-30T07:43:09.076Z,1022.170959
2022-08-30T07:44:03.370Z,1022.22998
2022-08-30T07:45:02.233Z,1022.19342
2022-08-30T07:45:56.636Z,1022.169617
2022-08-30T07:46:55.627Z,1022.208069
2022-08-30T07:47:49.749Z,1022.169617
2022-08-30T07:48:47.346Z,1022.243042
2022-08-30T07:49:45.591Z,1022.238403
2022-08-30T07:50:39.789Z,1022.173828
2022-08-30T07:51:41.512Z,1022.225342
2022-08-30T07:53:32.407Z,1022.223389
2022-08-30T07:54:26.836Z,1022.242249
2022-08-30T07:55:23.134Z,1022.271362
2022-08-30T07:56:24.987Z,1022.293762
2022-08-30T07:57:16.814Z,1022.258118
2022-08-30T07:59:10.859Z,1022.171387
2022-08-30T08:00:12.323Z,1022.305664
2022-08-30T08:01:04.814Z,1022.329651
2022-08-30T08:02:01.607Z,1022.26709
2022-08-30T08:03:00.617Z,1022.310303
2022-08-30T08:04:26.008Z,1022.310303
2022-08-30T08:05:06.257Z,1022.292542
2022-08-30T08:06:06.749Z,1022.247437
2022-08-30T08:07:03.875Z,1022.286926
2022-08-30T08:08:02.231Z,1022.268982
2022-08-30T08:09:02.934Z,1022.371216
2022-08-30T08:09:59.879Z,1022.368286
2022-08-30T08:10:59.742Z,1022.35791
2022-08-30T08:11:55.811Z,1022.354553
2022-08-30T08:12:58.999Z,1022.370544
2022-08-30T08:13:54.588Z,1022.328918
2022-08-30T08:14:52.801Z,1022.330017
2022-08-30T08:15:49.101Z,1022.354065
2022-08-30T08:16:52.342Z,1022.292542
2022-08-30T08:18:49.312Z,1022.313049
2022-08-30T08:19:43.684Z,1022.260498
2022-08-30T08:20:43.688Z,1022.374878
2022-08-30T08:21:40.117Z,1022.302551
2022-08-30T08:22:40.143Z,1022.27655
2022-08-30T08:23:39.130Z,1022.292297
2022-08-30T08:24:35.425Z,1022.343689
2022-08-30T08:25:38.780Z,1022.321106
2022-08-30T08:26:32.347Z,1022.342773
2022-08-30T08:28:30.439Z,1022.298401
2022-08-30T08:29:33.236Z,1022.31897
2022-08-30T08:30:26.837Z,1022.323608
2022-08-30T08:31:33.753Z,1022.208435
2022-08-30T08:32:29.321Z,1022.307007
2022-08-30T08:33:23.031Z,1022.319702
2022-08-30T08:34:26.693Z,1022.246094
2022-08-30T08:35:21.179Z,1022.203674
2022-08-30T08:36:23.581Z,1022.259888
2022-08-30T08:37:17.814Z,1022.219604
2022-08-30T08:39:13.540Z,1022.293762
2022-08-30T08:40:16.820Z,1022.339722
2022-08-30T08:41:09.857Z,1022.22998
2022-08-30T08:42:13.016Z,1022.372803
2022-08-30T08:44:07.294Z,1022.166443
2022-08-30T08:45:07.453Z,1022.233643
2022-08-30T08:45:10.943Z,1022.233643
2022-08-30T08:46:04.800Z,1022.210876
2022-08-30T08:47:01.192Z,1022.187805
2022-08-30T08:49:00.503Z,1022.225891
2022-08-30T08:49:59.749Z,1022.331055
2022-08-30T08:50:59.429Z,1022.273682
2022-08-30T08:51:56.684Z,1022.250977
2022-08-30T08:54:29.919Z,1022.282593
2022-08-30T08:55:10.123Z,1022.307678
2022-08-30T08:56:10.336Z,1022.281311
2022-08-30T08:57:13.762Z,1022.254089
2022-08-30T08:57:17.067Z,1022.254089
2022-08-30T08:58:06.270Z,1022.241577
2022-08-30T08:59:01.556Z,1022.260803
2022-08-30T09:00:00.675Z,1022.256165
2022-08-30T09:00:59.909Z,1022.309937
2022-08-30T09:01:58.145Z,1022.278076
2022-08-30T09:02:58.497Z,1022.212219
2022-08-30T09:03:51.802Z,1022.232666
2022-08-30T09:04:55.246Z,1022.240356
2022-08-30T09:05:48.061Z,1022.240356
2022-08-30T09:06:48.315Z,1022.267578
2022-08-30T09:07:43.563Z,1022.236206
2022-08-30T09:08:43.541Z,1022.26355
2022-08-30T09:09:39.781Z,1022.263428
2022-08-30T09:10:50.719Z,1022.250854
2022-08-30T09:10:50.781Z,1022.250854
2022-08-30T09:10:51.294Z,1022.250854
2022-08-30T09:11:39.936Z,1022.32196
2022-08-30T09:12:33.355Z,1022.273438
2022-08-30T09:13:33.400Z,1022.242737
2022-08-30T09:14:30.163Z,1022.303101
2022-08-30T09:15:28.980Z,1022.252686
2022-08-30T09:16:25.588Z,1022.327637
2022-08-30T09:17:25.275Z,1022.21875
2022-08-30T09:19:20.908Z,1022.291382
2022-08-30T09:20:16.206Z,1022.295959
2022-08-30T09:21:16.072Z,1022.245361
2022-08-30T09:22:11.176Z,1022.272583
2022-08-30T09:24:09.157Z,1022.19989
2022-08-30T09:25:04.826Z,1022.207397
2022-08-30T09:26:12.037Z,1022.234558
2022-08-30T09:26:59.547Z,1022.304993
2022-08-30T09:28:54.172Z,1022.231628
2022-08-30T09:29:54.505Z,1022.258972
2022-08-30T09:30:49.759Z,1022.234558
2022-08-30T09:32:01.338Z,1022.311707
2022-08-30T09:32:25.263Z,1022.311707
2022-08-30T09:32:45.204Z,1022.311707
2022-08-30T09:33:45.509Z,1022.223206
2022-08-30T09:34:40.613Z,1022.232422
2022-08-30T09:35:43.322Z,1022.216492
2022-08-30T09:36:36.003Z,1022.224854
2022-08-30T09:37:38.768Z,1022.186218
2022-08-30T09:38:32.283Z,1022.162048
2022-08-30T09:39:31.272Z,1022.181763
2022-08-30T09:40:32.198Z,1022.208984
2022-08-30T09:41:24.604Z,1022.21875
2022-08-30T09:42:23.048Z,1022.199768
2022-08-30T09:46:45.893Z,1022.172852
2022-08-30T09:47:25.948Z,1022.216125
2022-08-30T09:48:23.949Z,1022.261963
2022-08-30T09:49:24.107Z,1022.229004
2022-08-30T09:50:19.450Z,1022.166565
2022-08-30T09:51:19.198Z,1022.208496
2022-08-30T09:52:14.904Z,1022.176697
2022-08-30T09:54:18.050Z,1022.172729
2022-08-30T09:54:18.526Z,1022.172729
2022-08-30T09:55:08.276Z,1022.043945
2022-08-30T09:56:08.400Z,1022.032654
2022-08-30T09:57:03.674Z,1022.048523
2022-08-30T09:58:03.409Z,1022.029114
2022-08-30T09:58:58.885Z,1022.072205
2022-08-30T09:59:59.302Z,1022.150635
2022-08-30T10:00:54.648Z,1022.088257
2022-08-30T10:01:54.490Z,1021.996155
2022-08-30T10:03:49.707Z,1021.988098
2022-08-30T10:04:47.000Z,1022.101685
2022-08-30T10:05:46.877Z,1022.043945
2022-08-30T10:06:42.725Z,1022.024536
2022-08-30T10:07:42.177Z,1022.117676
2022-08-30T10:08:38.244Z,1022.082581
2022-08-30T10:09:37.899Z,1022.051819
2022-08-30T10:10:33.143Z,1022.118347
2022-08-30T10:11:36.950Z,1022.072876
2022-08-30T10:12:29.578Z,1022.132019
2022-08-30T10:14:24.880Z,1021.997192
2022-08-30T10:15:24.734Z,1021.966003
2022-08-30T10:16:20.195Z,1021.954651
2022-08-30T10:17:19.956Z,1021.998779
2022-08-30T10:17:27.094Z,1021.998779
2022-08-30T10:19:13.238Z,1022.027344
2022-08-30T10:20:13.185Z,1021.927185
2022-08-30T10:21:08.415Z,1021.930542
2022-08-30T10:22:06.880Z,1021.907898
2022-08-30T10:23:05.988Z,1021.997681
2022-08-30T10:24:01.129Z,1021.888672
2022-08-30T10:25:03.471Z,1021.841858
2022-08-30T10:25:56.383Z,1021.92041
2022-08-30T10:26:59.153Z,1021.936218
2022-08-30T10:28:36.574Z,1021.890259
2022-08-30T10:29:17.040Z,1021.849121
2022-08-30T10:30:16.745Z,1021.858154
2022-08-30T10:31:11.588Z,1021.859131
2022-08-30T10:32:11.717Z,1021.896729
2022-08-30T10:34:08.107Z,1021.783081
2022-08-30T10:35:06.160Z,1021.837646
2022-08-30T10:36:00.830Z,1021.862
2022-08-30T10:37:01.116Z,1021.842224
2022-08-30T10:38:59.017Z,1021.784058
2022-08-30T10:39:51.567Z,1021.827332
2022-08-30T10:40:54.661Z,1021.960266
2022-08-30T10:41:47.676Z,1021.879395
2022-08-30T10:42:48.117Z,1021.856567
2022-08-30T10:43:43.024Z,1021.891968
2022-08-30T10:44:42.972Z,1021.87262
2022-08-30T10:45:39.349Z,1021.899841
2022-08-30T10:46:39.142Z,1021.937561
2022-08-30T10:47:35.858Z,1021.86261
2022-08-30T10:49:35.896Z,1021.854553
2022-08-30T10:50:28.825Z,1021.847717
2022-08-30T10:51:30.855Z,1021.898865
2022-08-30T10:52:23.231Z,1021.84436
2022-08-30T10:54:18.951Z,1021.845276
2022-08-30T10:55:21.632Z,1021.876099
2022-08-30T10:56:14.139Z,1021.91803
2022-08-30T10:57:16.214Z,1021.937561
2022-08-30T10:58:08.480Z,1021.84436
2022-08-30T10:59:08.133Z,1021.906799
2022-08-30T11:00:05.956Z,1021.887634
2022-08-30T11:01:03.575Z,1021.853333
2022-08-30T11:01:58.591Z,1021.822815
2022-08-30T11:02:55.431Z,1021.811401
2022-08-30T11:03:55.879Z,1021.819458
2022-08-30T11:04:51.343Z,1021.870422
2022-08-30T11:06:32.092Z,1021.870422
2022-08-30T11:07:13.220Z,1021.808899
2022-08-30T11:09:11.549Z,1021.845215
2022-08-30T11:10:08.680Z,1021.852783
2022-08-30T11:11:12.985Z,1021.852783
2022-08-30T11:12:05.206Z,1021.798218
2022-08-30T11:13:05.982Z,1021.880127
2022-08-30T11:14:05.485Z,1021.848328
2022-08-30T11:15:01.983Z,1021.977295
2022-08-30T11:15:57.464Z,1021.809021
2022-08-30T11:16:57.795Z,1021.820435
2022-08-30T11:17:53.243Z,1021.804443
2022-08-30T11:18:56.253Z,1021.800476